createdAt,value
2023-01-08T00:00:16.097Z,9.85
2023-01-08T00:02:49.841Z,9.69
2023-01-08T00:05:22.459Z,9.85
2023-01-08T00:07:55.319Z,9.78
2023-01-08T00:10:27.915Z,9.71
2023-01-08T00:13:00.627Z,9.66
2023-01-08T00:15:35.713Z,9.64
2023-01-08T00:18:08.233Z,9.80
2023-01-08T00:20:48.385Z,9.87
2023-01-08T00:23:21.039Z,9.85
2023-01-08T00:25:53.596Z,9.86
2023-01-08T00:28:26.276Z,9.82
2023-01-08T00:30:59.142Z,10.03
2023-01-08T00:33:34.367Z,9.95
2023-01-08T00:36:17.506Z,10.02
2023-01-08T00:38:50.405Z,10.04
2023-01-08T00:41:22.983Z,10.05
2023-01-08T00:43:55.517Z,10.22
2023-01-08T00:46:28.317Z,10.01
2023-01-08T00:49:01.128Z,9.95
2023-01-08T00:51:33.835Z,9.81
2023-01-08T00:54:08.609Z,10.04
2023-01-08T00:56:41.106Z,10.01
2023-01-08T00:59:13.705Z,10.02
2023-01-08T01:01:46.495Z,9.93
2023-01-08T01:04:19.200Z,9.85
2023-01-08T01:06:51.748Z,9.81
2023-01-08T01:09:24.586Z,9.80
2023-01-08T01:11:57.844Z,9.97
2023-01-08T01:14:31.094Z,10.10
2023-01-08T01:17:04.655Z,10.01
2023-01-08T01:19:37.242Z,9.90
2023-01-08T01:22:09.832Z,10.04
2023-01-08T01:24:42.389Z,10.00
2023-01-08T01:27:14.941Z,10.08
2023-01-08T01:29:47.441Z,9.97
2023-01-08T01:32:20.205Z,9.94
2023-01-08T01:34:52.851Z,10.01
2023-01-08T01:37:25.467Z,10.16
2023-01-08T01:39:58.091Z,9.94
2023-01-08T01:42:39.889Z,10.03
2023-01-08T01:45:27.717Z,10.05
2023-01-08T01:48:11.185Z,9.79
2023-01-08T01:50:51.541Z,9.77
2023-01-08T01:53:31.845Z,9.47
2023-01-08T01:56:05.699Z,9.43
2023-01-08T01:58:38.284Z,9.47
2023-01-08T02:01:10.960Z,9.26
2023-01-08T02:03:43.733Z,9.08
2023-01-08T02:06:40.781Z,8.90
2023-01-08T02:09:29.123Z,8.53
2023-01-08T02:12:19.224Z,8.58
2023-01-08T02:15:12.647Z,8.76
2023-01-08T02:17:58.334Z,8.59
2023-01-08T02:20:52.211Z,8.50
2023-01-08T02:23:58.940Z,8.57
2023-01-08T02:26:35.737Z,8.52
2023-01-08T02:29:15.020Z,8.54
2023-01-08T02:31:48.213Z,8.51
2023-01-08T02:34:21.003Z,8.54
2023-01-08T02:36:56.957Z,8.38
2023-01-08T02:39:56.750Z,8.38
2023-01-08T02:42:49.865Z,8.30
2023-01-08T02:45:36.833Z,8.37
2023-01-08T02:48:16.916Z,8.05
2023-01-08T02:51:14.876Z,8.05
2023-01-08T02:53:57.258Z,8.21
2023-01-08T02:56:38.427Z,8.13
2023-01-08T02:59:15.349Z,7.86
2023-01-08T03:01:48.691Z,7.94
2023-01-08T03:04:25.946Z,8.07
2023-01-08T03:06:59.068Z,8.16
2023-01-08T03:09:32.271Z,8.03
2023-01-08T03:12:19.013Z,8.04
2023-01-08T03:15:00.695Z,7.99
2023-01-08T03:17:39.537Z,8.09
2023-01-08T03:20:21.195Z,8.06
2023-01-08T03:22:58.379Z,8.14
2023-01-08T03:25:31.699Z,7.98
2023-01-08T03:28:13.422Z,7.66
2023-01-08T03:30:49.483Z,7.99
2023-01-08T03:33:24.191Z,8.06
2023-01-08T03:36:01.823Z,8.06
2023-01-08T03:38:42.379Z,8.15
2023-01-08T03:41:21.017Z,8.14
2023-01-08T03:43:53.574Z,8.12
2023-01-08T03:46:35.708Z,8.10
2023-01-08T03:49:10.200Z,7.78
2023-01-08T03:51:46.968Z,8.22
2023-01-08T03:54:25.417Z,8.16
2023-01-08T03:56:58.079Z,8.17
2023-01-08T03:59:30.715Z,8.12
2023-01-08T04:02:06.862Z,8.32
2023-01-08T04:04:39.743Z,8.22
2023-01-08T04:07:13.576Z,8.42
2023-01-08T04:09:47.048Z,8.16
2023-01-08T04:12:20.081Z,8.25
2023-01-08T04:14:52.686Z,8.06
2023-01-08T04:17:26.902Z,7.97
2023-01-08T04:19:59.484Z,8.00
2023-01-08T04:22:32.163Z,8.07
2023-01-08T04:25:05.290Z,7.91
2023-01-08T04:27:38.274Z,7.90
2023-01-08T04:30:11.314Z,8.00
2023-01-08T04:32:43.856Z,8.10
2023-01-08T04:35:16.640Z,8.05
2023-01-08T04:37:49.256Z,7.99
2023-01-08T04:40:21.920Z,8.15
2023-01-08T04:42:54.487Z,8.06
2023-01-08T04:45:27.129Z,8.18
2023-01-08T04:48:02.464Z,8.14
2023-01-08T04:50:36.856Z,8.16
2023-01-08T04:53:11.323Z,8.12
2023-01-08T04:55:43.856Z,8.04
2023-01-08T04:58:16.508Z,8.10
2023-01-08T05:00:49.114Z,8.13
2023-01-08T05:03:21.780Z,8.20
2023-01-08T05:05:54.412Z,8.28
2023-01-08T05:08:26.990Z,8.18
2023-01-08T05:11:00.794Z,8.19
2023-01-08T05:13:33.687Z,7.91
2023-01-08T05:16:06.831Z,8.03
2023-01-08T05:18:39.428Z,8.14
2023-01-08T05:21:13.671Z,8.24
2023-01-08T05:23:47.986Z,8.14
2023-01-08T05:26:20.674Z,8.28
2023-01-08T05:28:53.287Z,8.20
2023-01-08T05:31:27.484Z,8.10
2023-01-08T05:34:03.568Z,8.00
2023-01-08T05:36:36.332Z,8.15
2023-01-08T05:39:09.215Z,8.16
2023-01-08T05:41:41.869Z,8.07
2023-01-08T05:44:14.496Z,8.05
2023-01-08T05:46:47.251Z,7.93
2023-01-08T05:49:22.017Z,8.05
2023-01-08T05:51:54.533Z,7.90
2023-01-08T05:54:27.155Z,7.84
2023-01-08T05:56:59.655Z,7.76
2023-01-08T05:59:32.219Z,7.58
2023-01-08T06:02:05.078Z,7.50
2023-01-08T06:04:38.061Z,7.28
2023-01-08T06:07:10.691Z,7.24
2023-01-08T06:09:43.300Z,7.25
2023-01-08T06:12:15.799Z,7.13
2023-01-08T06:14:48.274Z,7.05
2023-01-08T06:17:20.791Z,7.13
2023-01-08T06:19:53.738Z,7.07
2023-01-08T06:22:27.676Z,7.04
2023-01-08T06:25:00.357Z,6.79
2023-01-08T06:27:32.934Z,6.63
2023-01-08T06:30:06.468Z,6.71
2023-01-08T06:32:41.678Z,6.85
2023-01-08T06:35:14.298Z,6.71
2023-01-08T06:37:47.061Z,6.68
2023-01-08T06:40:19.647Z,6.75
2023-01-08T06:42:52.919Z,6.64
2023-01-08T06:45:25.479Z,6.58
2023-01-08T06:48:04.783Z,6.56
2023-01-08T06:50:37.721Z,6.54
2023-01-08T06:53:10.368Z,6.54
2023-01-08T06:55:42.883Z,6.42
2023-01-08T06:58:15.541Z,6.30
2023-01-08T07:00:48.340Z,6.46
2023-01-08T07:03:20.957Z,6.40
2023-01-08T07:05:53.602Z,6.50
2023-01-08T07:08:26.570Z,6.51
2023-01-08T07:11:04.215Z,6.42
2023-01-08T07:13:36.947Z,6.53
2023-01-08T07:16:13.233Z,6.60
2023-01-08T07:18:45.877Z,6.60
2023-01-08T07:21:20.582Z,6.59
2023-01-08T07:23:53.268Z,6.61
2023-01-08T07:26:25.869Z,6.53
2023-01-08T07:28:58.569Z,6.56
2023-01-08T07:31:31.191Z,6.60
2023-01-08T07:34:03.984Z,6.50
2023-01-08T07:36:37.117Z,6.63
2023-01-08T07:39:09.789Z,6.52
2023-01-08T07:41:42.425Z,6.39
2023-01-08T07:44:15.447Z,6.41
2023-01-08T07:46:47.993Z,6.29
2023-01-08T07:49:20.548Z,6.26
2023-01-08T07:51:53.068Z,6.23
2023-01-08T07:54:25.577Z,6.28
2023-01-08T07:56:58.118Z,6.26
2023-01-08T07:59:30.972Z,6.19
2023-01-08T08:02:03.886Z,6.08
2023-01-08T08:04:36.513Z,6.17
2023-01-08T08:07:09.300Z,6.19
2023-01-08T08:09:42.259Z,6.33
2023-01-08T08:12:15.252Z,6.42
2023-01-08T08:14:48.239Z,6.35
2023-01-08T08:17:20.840Z,6.45
2023-01-08T08:19:53.412Z,6.62
2023-01-08T08:22:26.320Z,6.76
2023-01-08T08:24:58.908Z,6.89
2023-01-08T08:27:31.448Z,7.00
2023-01-08T08:30:06.474Z,7.05
2023-01-08T08:32:39.070Z,7.16
2023-01-08T08:35:11.619Z,6.88
2023-01-08T08:37:44.124Z,7.16
2023-01-08T08:40:16.831Z,7.19
2023-01-08T08:42:49.394Z,7.17
2023-01-08T08:45:22.338Z,7.20
2023-01-08T08:47:55.361Z,7.00
2023-01-08T08:50:28.155Z,7.22
2023-01-08T08:53:02.154Z,7.07
2023-01-08T08:55:35.038Z,7.08
2023-01-08T08:58:12.993Z,7.09
2023-01-08T09:00:45.619Z,7.07
2023-01-08T09:03:18.248Z,6.77
2023-01-08T09:05:50.821Z,6.95
2023-01-08T09:08:23.394Z,6.85
2023-01-08T09:10:55.999Z,6.79
2023-01-08T09:13:28.610Z,6.70
2023-01-08T09:16:01.308Z,6.66
2023-01-08T09:18:34.108Z,6.68
2023-01-08T09:21:07.694Z,6.75
2023-01-08T09:23:40.306Z,6.50
2023-01-08T09:26:12.849Z,6.53
2023-01-08T09:28:45.506Z,6.69
2023-01-08T09:31:18.173Z,6.57
2023-01-08T09:33:51.124Z,6.81
2023-01-08T09:36:23.619Z,6.50
2023-01-08T09:38:56.193Z,6.73
2023-01-08T09:41:39.407Z,6.60
2023-01-08T09:44:18.401Z,6.65
2023-01-08T09:46:54.027Z,6.77
2023-01-08T09:49:39.793Z,6.71
2023-01-08T09:52:15.057Z,6.84
2023-01-08T09:54:48.641Z,6.90
2023-01-08T09:57:22.638Z,6.72
2023-01-08T09:59:55.181Z,6.91
2023-01-08T10:02:29.886Z,6.95
2023-01-08T10:05:06.806Z,7.05
2023-01-08T10:07:40.185Z,7.13
2023-01-08T10:10:29.281Z,6.98
2023-01-08T10:13:02.388Z,7.27
2023-01-08T10:15:35.033Z,7.31
2023-01-08T10:18:14.317Z,7.29
2023-01-08T10:20:46.883Z,7.37
2023-01-08T10:23:23.095Z,7.47
2023-01-08T10:26:02.892Z,7.60
2023-01-08T10:28:35.680Z,7.62
2023-01-08T10:31:15.442Z,7.76
2023-01-08T10:33:50.045Z,7.74
2023-01-08T10:36:27.616Z,7.72
2023-01-08T10:39:02.996Z,7.74
2023-01-08T10:41:39.969Z,7.77
2023-01-08T10:44:18.987Z,8.03
2023-01-08T10:47:00.133Z,7.83
2023-01-08T10:49:41.808Z,8.08
2023-01-08T10:52:33.654Z,8.23
2023-01-08T10:55:28.439Z,8.32
2023-01-08T10:58:09.783Z,8.35
2023-01-08T11:00:42.686Z,8.48
2023-01-08T11:03:42.136Z,8.60
2023-01-08T11:06:29.244Z,8.38
2023-01-08T11:09:19.520Z,8.60
2023-01-08T11:11:52.317Z,8.58
2023-01-08T11:14:35.309Z,8.77
2023-01-08T11:17:12.839Z,8.92
2023-01-08T11:19:45.478Z,8.91
2023-01-08T11:22:26.656Z,8.92
2023-01-08T11:24:59.302Z,8.82
2023-01-08T11:27:37.022Z,8.99
2023-01-08T11:30:18.150Z,9.00
2023-01-08T11:33:13.671Z,8.88
2023-01-08T11:35:50.410Z,8.97
2023-01-08T11:38:23.028Z,9.11
2023-01-08T11:41:18.066Z,9.10
2023-01-08T11:44:27.633Z,9.03
2023-01-08T11:47:23.390Z,9.28
2023-01-08T11:50:17.851Z,9.40
2023-01-08T11:53:13.009Z,9.37
2023-01-08T11:56:08.241Z,9.32
2023-01-08T11:59:03.223Z,9.04
2023-01-08T12:02:30.909Z,9.06
2023-01-08T12:05:26.817Z,9.32
2023-01-08T12:08:36.471Z,9.55
2023-01-08T12:11:30.628Z,9.50
2023-01-08T12:14:21.803Z,9.64
2023-01-08T12:17:12.873Z,9.46
2023-01-08T12:20:00.266Z,9.32
2023-01-08T12:22:55.223Z,9.50
2023-01-08T12:25:55.267Z,9.59
2023-01-08T12:28:50.966Z,9.55
2023-01-08T12:32:01.961Z,9.84
2023-01-08T12:35:00.420Z,9.56
2023-01-08T12:37:46.954Z,9.82
2023-01-08T12:40:32.174Z,10.16
2023-01-08T12:43:19.119Z,9.83
2023-01-08T12:45:58.393Z,9.89
2023-01-08T12:48:37.936Z,10.31
2023-01-08T12:51:26.610Z,10.08
2023-01-08T12:54:29.732Z,9.96
2023-01-08T12:57:42.606Z,9.93
2023-01-08T13:00:40.133Z,9.88
2023-01-08T13:03:22.290Z,9.70
2023-01-08T13:06:11.841Z,9.78
2023-01-08T13:08:55.639Z,9.73
2023-01-08T13:11:33.433Z,9.81
2023-01-08T13:14:12.174Z,9.85
2023-01-08T13:16:47.934Z,9.79
2023-01-08T13:19:32.561Z,9.64
2023-01-08T13:22:05.527Z,9.84
2023-01-08T13:24:41.078Z,9.61
2023-01-08T13:27:19.317Z,9.82
2023-01-08T13:29:52.623Z,9.47
2023-01-08T13:32:46.829Z,9.59
2023-01-08T13:35:24.570Z,9.54
2023-01-08T13:38:18.322Z,9.57
2023-01-08T13:40:56.563Z,9.64
2023-01-08T13:43:38.870Z,9.69
2023-01-08T13:46:20.419Z,9.60
2023-01-08T13:49:03.309Z,9.29
2023-01-08T13:51:41.606Z,9.58
2023-01-08T13:54:14.911Z,9.58
2023-01-08T13:56:54.402Z,9.39
2023-01-08T13:59:38.920Z,9.36
2023-01-08T14:02:31.765Z,9.39
2023-01-08T14:05:20.821Z,9.49
2023-01-08T14:07:53.668Z,9.55
2023-01-08T14:10:28.975Z,9.59
2023-01-08T14:13:08.954Z,9.51
2023-01-08T14:15:41.834Z,9.44
2023-01-08T14:18:15.352Z,9.16
2023-01-08T14:20:51.325Z,9.24
2023-01-08T14:23:30.341Z,9.36
2023-01-08T14:26:10.355Z,9.29
2023-01-08T14:28:52.102Z,9.31
2023-01-08T14:31:27.657Z,9.39
2023-01-08T14:34:01.016Z,9.44
2023-01-08T14:36:33.975Z,9.39
2023-01-08T14:39:31.256Z,9.35
2023-01-08T14:42:40.369Z,9.11
2023-01-08T14:45:34.042Z,9.22
2023-01-08T14:48:25.506Z,9.30
2023-01-08T14:51:07.160Z,9.13
2023-01-08T14:53:47.963Z,9.28
2023-01-08T14:56:28.211Z,9.21
2023-01-08T14:59:06.922Z,8.96
2023-01-08T15:01:40.179Z,9.06
2023-01-08T15:04:22.377Z,9.09
2023-01-08T15:07:29.562Z,8.87
2023-01-08T15:10:02.431Z,8.75
2023-01-08T15:12:34.988Z,8.88
2023-01-08T15:15:24.459Z,8.90
2023-01-08T15:17:57.413Z,8.70
2023-01-08T15:20:32.182Z,8.77
2023-01-08T15:23:04.838Z,8.61
2023-01-08T15:25:37.476Z,8.65
2023-01-08T15:28:15.506Z,8.66
2023-01-08T15:30:50.115Z,8.47
2023-01-08T15:33:26.472Z,8.55
2023-01-08T15:35:59.344Z,8.46
2023-01-08T15:38:31.891Z,8.34
2023-01-08T15:41:04.526Z,8.37
2023-01-08T15:43:37.025Z,8.35
2023-01-08T15:46:11.577Z,8.42
2023-01-08T15:48:44.171Z,8.33
2023-01-08T15:51:16.784Z,8.21
2023-01-08T15:53:49.274Z,8.15
2023-01-08T15:56:21.795Z,8.31
2023-01-08T15:58:54.408Z,8.38
2023-01-08T16:01:28.570Z,8.34
2023-01-08T16:04:01.210Z,8.12
2023-01-08T16:06:33.958Z,8.26
2023-01-08T16:09:06.511Z,8.20
2023-01-08T16:11:39.054Z,8.20
2023-01-08T16:14:11.607Z,8.22
2023-01-08T16:16:44.186Z,8.21
2023-01-08T16:19:16.727Z,8.17
2023-01-08T16:21:50.165Z,8.14
2023-01-08T16:24:22.815Z,8.27
2023-01-08T16:26:55.360Z,8.43
2023-01-08T16:29:27.959Z,8.51
2023-01-08T16:32:00.560Z,8.46
2023-01-08T16:34:33.143Z,8.51
2023-01-08T16:37:06.484Z,8.66
2023-01-08T16:39:38.998Z,8.66
2023-01-08T16:42:11.969Z,8.81
2023-01-08T16:44:44.640Z,8.82
2023-01-08T16:47:17.678Z,8.72
2023-01-08T16:49:51.108Z,8.91
2023-01-08T16:52:23.842Z,8.98
2023-01-08T16:54:56.323Z,8.87
2023-01-08T16:57:28.845Z,8.80
2023-01-08T17:00:01.380Z,8.86
2023-01-08T17:02:33.963Z,8.74
2023-01-08T17:05:07.148Z,8.64
2023-01-08T17:07:39.685Z,8.47
2023-01-08T17:10:12.278Z,8.52
2023-01-08T17:12:44.933Z,8.36
2023-01-08T17:15:17.824Z,8.10
2023-01-08T17:17:50.399Z,8.06
2023-01-08T17:20:23.846Z,8.16
2023-01-08T17:22:58.552Z,7.93
2023-01-08T17:25:31.099Z,7.98
2023-01-08T17:28:03.624Z,7.74
2023-01-08T17:30:36.213Z,7.83
2023-01-08T17:33:08.795Z,7.75
2023-01-08T17:35:42.664Z,7.55
2023-01-08T17:38:15.243Z,7.64
2023-01-08T17:40:47.837Z,7.59
2023-01-08T17:43:20.588Z,7.56
2023-01-08T17:45:55.127Z,7.62
2023-01-08T17:48:28.930Z,7.54
2023-01-08T17:51:08.580Z,7.49
2023-01-08T17:53:41.978Z,7.54
2023-01-08T17:56:14.532Z,7.55
2023-01-08T17:58:50.449Z,7.61
2023-01-08T18:01:23.121Z,7.67
2023-01-08T18:03:55.896Z,7.54
2023-01-08T18:06:28.511Z,7.40
2023-01-08T18:09:01.001Z,7.44
2023-01-08T18:11:33.535Z,7.47
2023-01-08T18:14:06.057Z,7.42
2023-01-08T18:16:39.868Z,7.66
2023-01-08T18:19:12.804Z,7.63
2023-01-08T18:21:47.559Z,7.70
2023-01-08T18:24:20.262Z,7.64
2023-01-08T18:26:52.700Z,7.69
2023-01-08T18:29:25.369Z,7.74
2023-01-08T18:31:58.031Z,7.73
2023-01-08T18:34:30.563Z,7.59
2023-01-08T18:37:03.144Z,7.67
2023-01-08T18:39:35.667Z,7.58
2023-01-08T18:42:27.321Z,7.42
2023-01-08T18:45:00.511Z,7.24
2023-01-08T18:47:33.109Z,7.21
2023-01-08T18:50:06.533Z,7.11
2023-01-08T18:52:40.295Z,7.22
2023-01-08T18:55:12.799Z,7.22
2023-01-08T18:57:45.312Z,7.25
2023-01-08T19:00:18.532Z,7.38
2023-01-08T19:02:52.566Z,7.54
2023-01-08T19:05:25.712Z,7.50
2023-01-08T19:07:58.745Z,7.44
2023-01-08T19:10:31.221Z,7.56
2023-01-08T19:13:05.202Z,7.74
2023-01-08T19:15:38.272Z,7.64
2023-01-08T19:18:11.021Z,7.67
2023-01-08T19:20:46.053Z,7.84
2023-01-08T19:23:18.912Z,7.90
2023-01-08T19:25:51.563Z,7.80
2023-01-08T19:28:24.090Z,7.83
2023-01-08T19:30:58.875Z,7.67
2023-01-08T19:33:31.974Z,7.83
2023-01-08T19:36:10.968Z,7.74
2023-01-08T19:38:44.839Z,7.63
2023-01-08T19:41:36.848Z,7.54
2023-01-08T19:44:09.505Z,7.60
2023-01-08T19:46:42.131Z,7.54
2023-01-08T19:49:15.211Z,7.54
2023-01-08T19:51:47.782Z,7.59
2023-01-08T19:54:23.571Z,7.69
2023-01-08T19:56:56.305Z,7.61
2023-01-08T19:59:28.791Z,7.71
2023-01-08T20:02:01.961Z,7.82
2023-01-08T20:04:39.952Z,7.77
2023-01-08T20:07:14.525Z,7.70
2023-01-08T20:09:47.101Z,7.64
2023-01-08T20:12:19.684Z,7.58
2023-01-08T20:14:52.169Z,7.65
2023-01-08T20:17:25.290Z,7.64
2023-01-08T20:19:57.912Z,7.68
2023-01-08T20:22:31.135Z,7.59
2023-01-08T20:25:05.062Z,7.50
2023-01-08T20:27:37.689Z,7.62
2023-01-08T20:30:11.658Z,7.47
2023-01-08T20:32:44.137Z,7.48
2023-01-08T20:35:16.767Z,7.33
2023-01-08T20:37:50.316Z,7.16
2023-01-08T20:40:22.861Z,7.31
2023-01-08T20:42:55.403Z,7.20
2023-01-08T20:45:27.957Z,7.19
2023-01-08T20:48:00.532Z,7.08
2023-01-08T20:50:33.122Z,7.03
2023-01-08T20:53:05.909Z,7.14
2023-01-08T20:55:38.995Z,7.10
2023-01-08T20:58:11.602Z,7.16
2023-01-08T21:00:44.281Z,7.33
2023-01-08T21:03:17.041Z,7.33
2023-01-08T21:05:49.519Z,7.22
2023-01-08T21:08:22.029Z,7.28
2023-01-08T21:11:00.301Z,7.31
2023-01-08T21:13:33.645Z,7.52
2023-01-08T21:16:11.565Z,7.62
2023-01-08T21:18:47.384Z,7.57
2023-01-08T21:21:33.188Z,7.58
2023-01-08T21:24:08.830Z,7.71
2023-01-08T21:26:41.494Z,7.79
2023-01-08T21:29:16.440Z,7.86
2023-01-08T21:31:49.133Z,7.77
2023-01-08T21:34:21.797Z,7.99
2023-01-08T21:36:54.789Z,8.07
2023-01-08T21:39:27.317Z,7.97
2023-01-08T21:42:18.678Z,8.13
2023-01-08T21:45:09.901Z,8.05
2023-01-08T21:47:43.043Z,8.08
2023-01-08T21:50:16.047Z,8.12
2023-01-08T21:53:07.459Z,8.24
2023-01-08T21:55:42.032Z,8.15
2023-01-08T21:58:14.565Z,8.12
2023-01-08T22:00:47.309Z,8.15
2023-01-08T22:03:22.251Z,7.93
2023-01-08T22:06:05.085Z,8.03
2023-01-08T22:08:38.140Z,8.07
2023-01-08T22:11:10.801Z,8.17
2023-01-08T22:13:44.646Z,8.00
2023-01-08T22:16:17.785Z,8.03
2023-01-08T22:18:50.498Z,7.95
2023-01-08T22:21:23.085Z,8.05
2023-01-08T22:23:56.640Z,8.10
2023-01-08T22:26:29.294Z,7.87
2023-01-08T22:29:03.602Z,7.91
2023-01-08T22:31:36.206Z,8.03
2023-01-08T22:34:12.628Z,7.99
2023-01-08T22:36:49.406Z,8.08
2023-01-08T22:39:22.043Z,7.78
2023-01-08T22:41:54.610Z,8.00
2023-01-08T22:44:27.212Z,7.71
2023-01-08T22:47:02.772Z,7.31
2023-01-08T22:49:38.149Z,7.35
2023-01-08T22:52:11.635Z,7.02
2023-01-08T22:54:44.462Z,6.97
2023-01-08T22:57:16.967Z,7.06
2023-01-08T22:59:50.849Z,6.89
2023-01-08T23:02:26.834Z,6.94
2023-01-08T23:05:05.477Z,6.92
2023-01-08T23:07:40.797Z,7.12
2023-01-08T23:10:16.177Z,6.97
2023-01-08T23:12:51.474Z,6.90
2023-01-08T23:15:24.871Z,7.04
2023-01-08T23:17:57.469Z,6.96
2023-01-08T23:20:29.982Z,6.99
2023-01-08T23:23:02.771Z,6.84
2023-01-08T23:25:35.521Z,6.90
2023-01-08T23:28:09.111Z,6.88
2023-01-08T23:30:41.885Z,6.78
2023-01-08T23:33:14.894Z,6.82
2023-01-08T23:35:48.591Z,6.74
2023-01-08T23:38:21.135Z,6.71
2023-01-08T23:40:53.998Z,6.65
2023-01-08T23:43:26.541Z,6.60
2023-01-08T23:46:03.918Z,6.50
2023-01-08T23:48:36.517Z,6.54
2023-01-08T23:51:09.155Z,6.46
2023-01-08T23:53:41.810Z,6.52
2023-01-08T23:56:19.771Z,6.38
2023-01-08T23:58:53.305Z,6.37
